createdAt,value
2019-05-16T00:01:38.412Z,100670.65
2019-05-16T00:06:45.220Z,100665.98
2019-05-16T00:11:51.156Z,100659.98
2019-05-16T00:16:58.908Z,100659.99
2019-05-16T00:22:04.885Z,100648.47
2019-05-16T00:27:10.846Z,100651.34
2019-05-16T00:32:18.949Z,100647.82
2019-05-16T00:37:24.650Z,100642.34
2019-05-16T00:42:30.497Z,100640.70
2019-05-16T00:47:38.685Z,100629.14
2019-05-16T00:52:44.144Z,100614.61
2019-05-16T00:57:52.203Z,100612.27
2019-05-16T01:02:58.068Z,100608.22
2019-05-16T01:08:04.153Z,100604.17
2019-05-16T01:13:10.499Z,100600.48
2019-05-16T01:18:18.751Z,100596.47
2019-05-16T01:23:23.360Z,100587.48
2019-05-16T01:28:29.357Z,100579.47
2019-05-16T01:33:35.636Z,100573.78
2019-05-16T01:38:42.017Z,100584.56
2019-05-16T01:43:48.499Z,100583.58
2019-05-16T01:48:54.573Z,100576.20
2019-05-16T01:54:00.543Z,100565.50
2019-05-16T01:59:08.678Z,100562.31
2019-05-16T02:04:14.230Z,100561.48
2019-05-16T02:09:20.135Z,100559.82
2019-05-16T02:14:28.203Z,100561.64
2019-05-16T02:19:33.675Z,100554.46
2019-05-16T02:24:39.647Z,100548.42
2019-05-16T02:29:45.516Z,100557.80
2019-05-16T02:34:51.531Z,100548.92
2019-05-16T02:40:00.982Z,100552.09
2019-05-16T02:45:06.972Z,100542.73
2019-05-16T02:50:13.597Z,100537.53
2019-05-16T02:55:21.660Z,100525.63
2019-05-16T03:00:41.956Z,100526.48
2019-05-16T03:05:45.132Z,100528.00
2019-05-16T03:10:52.389Z,100525.29
2019-05-16T03:16:02.358Z,100519.27
2019-05-16T03:21:12.156Z,100526.81
2019-05-16T03:26:21.053Z,100513.92
2019-05-16T03:31:27.593Z,100512.63
2019-05-16T03:36:34.685Z,100506.99
2019-05-16T03:41:41.551Z,100510.88
2019-05-16T03:46:47.852Z,100518.26
2019-05-16T03:51:53.717Z,100513.91
2019-05-16T03:57:00.549Z,100510.23
2019-05-16T04:02:06.679Z,100507.55
2019-05-16T04:07:12.552Z,100505.21
2019-05-16T04:12:21.125Z,100504.53
2019-05-16T04:17:27.055Z,100506.53
2019-05-16T04:22:33.027Z,100498.66
2019-05-16T04:27:41.644Z,100497.50
2019-05-16T04:32:46.814Z,100496.77
2019-05-16T04:37:53.219Z,100492.09
2019-05-16T04:43:01.227Z,100491.42
2019-05-16T04:48:06.886Z,100486.73
2019-05-16T04:53:12.980Z,100485.05
2019-05-16T04:58:23.369Z,100486.72
2019-05-16T05:03:26.734Z,100489.08
2019-05-16T05:08:49.008Z,100484.06
2019-05-16T05:13:41.308Z,100479.73
2019-05-16T05:18:47.725Z,100482.72
2019-05-16T05:23:53.726Z,100482.72
2019-05-16T05:28:59.966Z,100478.41
2019-05-16T05:34:06.044Z,100477.06
2019-05-16T05:39:15.484Z,100482.93
2019-05-16T05:44:20.437Z,100485.40
2019-05-16T05:49:26.651Z,100488.63
2019-05-16T05:54:32.489Z,100484.63
2019-05-16T05:59:40.476Z,100484.45
2019-05-16T06:04:46.125Z,100489.14
2019-05-16T06:09:56.299Z,100490.64
2019-05-16T06:15:07.789Z,100482.42
2019-05-16T06:20:14.035Z,100486.28
2019-05-16T06:25:15.684Z,100486.44
2019-05-16T06:30:21.999Z,100487.45
2019-05-16T06:35:29.931Z,100483.45
2019-05-16T06:40:35.950Z,100485.25
2019-05-16T06:45:41.921Z,100491.94
2019-05-16T06:50:48.494Z,100491.27
2019-05-16T06:55:55.603Z,100487.40
2019-05-16T07:01:03.601Z,100480.30
2019-05-16T07:06:11.025Z,100482.48
2019-05-16T07:11:16.118Z,100472.37
2019-05-16T07:16:22.205Z,100482.62
2019-05-16T07:21:31.075Z,100481.32
2019-05-16T07:26:36.239Z,100492.20
2019-05-16T07:31:42.139Z,100484.97
2019-05-16T07:36:50.244Z,100494.00
2019-05-16T07:41:56.848Z,100492.66
2019-05-16T07:47:03.006Z,100494.70
2019-05-16T07:52:09.939Z,100498.05
2019-05-16T07:57:20.471Z,100495.20
2019-05-16T08:02:23.030Z,100498.73
2019-05-16T08:07:30.705Z,100500.24
2019-05-16T08:12:40.435Z,100507.14
2019-05-16T08:17:45.578Z,100514.87
2019-05-16T08:22:51.895Z,100504.14
2019-05-16T08:28:01.177Z,100505.90
2019-05-16T08:33:06.565Z,100514.41
2019-05-16T08:38:13.580Z,100522.47
2019-05-16T08:48:27.960Z,100523.39
2019-05-16T08:53:33.925Z,100521.36
2019-05-16T08:58:41.127Z,100533.75
2019-05-16T09:03:47.258Z,100526.96
2019-05-16T09:08:53.274Z,100530.58
2019-05-16T09:10:34.643Z,100521.94
2019-05-16T09:13:59.258Z,100527.15
2019-05-16T09:19:07.677Z,100527.71
2019-05-16T09:24:13.063Z,100529.69
2019-05-16T09:29:19.007Z,100523.01
2019-05-16T09:34:28.122Z,100528.29
2019-05-16T09:39:32.792Z,100526.55
2019-05-16T09:44:38.782Z,100515.31
2019-05-16T09:49:47.326Z,100515.73
2019-05-16T09:54:52.333Z,100514.23
2019-05-16T09:59:58.273Z,100507.64
2019-05-16T10:05:12.409Z,100511.03
2019-05-16T10:10:13.573Z,100503.23
2019-05-16T10:15:20.223Z,100506.88
2019-05-16T10:20:27.385Z,100500.77
2019-05-16T10:25:33.589Z,100511.66
2019-05-16T10:30:39.602Z,100508.95
2019-05-16T10:35:48.022Z,100511.28
2019-05-16T10:40:53.937Z,100521.06
2019-05-16T10:46:00.279Z,100519.65
2019-05-16T10:51:07.780Z,100514.89
2019-05-16T10:56:14.047Z,100517.33
2019-05-16T11:01:27.483Z,100523.11
2019-05-16T11:06:29.437Z,100516.81
2019-05-16T11:11:36.775Z,100512.84
2019-05-16T11:16:43.025Z,100512.31
2019-05-16T11:21:48.862Z,100521.90
2019-05-16T11:26:56.766Z,100517.40
2019-05-16T11:32:02.889Z,100523.31
2019-05-16T11:37:08.853Z,100522.95
2019-05-16T11:42:17.326Z,100525.27
2019-05-16T11:47:22.542Z,100529.38
2019-05-16T11:52:28.756Z,100527.77
2019-05-16T11:57:34.892Z,100519.70
2019-05-16T12:02:42.787Z,100525.69
2019-05-16T12:07:48.902Z,100523.59
2019-05-16T12:12:56.829Z,100523.00
2019-05-16T12:18:05.194Z,100520.80
2019-05-16T12:23:11.831Z,100524.77
2019-05-16T12:28:17.810Z,100521.73
2019-05-16T12:33:27.414Z,100517.86
2019-05-16T12:38:31.762Z,100522.52
2019-05-16T12:43:49.034Z,100518.51
2019-05-16T12:48:47.362Z,100507.22
2019-05-16T12:53:53.376Z,100515.47
2019-05-16T12:58:59.341Z,100509.38
2019-05-16T13:04:05.531Z,100501.22
2019-05-16T13:09:11.756Z,100500.16
2019-05-16T13:14:17.872Z,100495.36
2019-05-16T13:19:23.965Z,100508.15
2019-05-16T13:24:30.019Z,100499.88
2019-05-16T13:29:37.078Z,100502.27
2019-05-16T13:34:43.810Z,100497.11
2019-05-16T13:39:50.081Z,100489.95
2019-05-16T13:44:57.850Z,100492.38
2019-05-16T13:50:11.644Z,100489.00
2019-05-16T13:55:13.525Z,100489.34
2019-05-16T14:00:21.038Z,100488.49
2019-05-16T14:05:27.105Z,100486.77
2019-05-16T14:10:33.405Z,100488.72
2019-05-16T14:15:39.559Z,100483.34
2019-05-16T14:20:46.636Z,100483.96
2019-05-16T14:25:52.881Z,100479.45
2019-05-16T14:30:58.805Z,100486.03
2019-05-16T14:36:07.092Z,100482.69
2019-05-16T14:41:12.997Z,100475.57
2019-05-16T14:46:19.291Z,100475.30
2019-05-16T14:51:28.190Z,100472.77
2019-05-16T14:56:33.163Z,100480.60
2019-05-16T15:01:39.136Z,100479.12
2019-05-16T15:06:46.987Z,100475.76
2019-05-16T15:11:52.824Z,100466.53
2019-05-16T15:16:59.214Z,100455.67
2019-05-16T15:22:07.886Z,100463.33
2019-05-16T15:27:16.987Z,100463.81
2019-05-16T15:32:23.155Z,100460.48
2019-05-16T15:37:29.046Z,100461.18
2019-05-16T15:42:37.299Z,100465.56
2019-05-16T15:47:42.846Z,100466.97
2019-05-16T15:52:48.991Z,100459.06
2019-05-16T15:57:55.063Z,100452.83
2019-05-16T16:03:01.143Z,100451.78
2019-05-16T16:08:07.414Z,100450.13
2019-05-16T16:13:13.811Z,100460.79
2019-05-16T16:18:21.916Z,100451.48
2019-05-16T16:23:27.807Z,100459.38
2019-05-16T16:28:34.066Z,100462.34
2019-05-16T16:33:40.249Z,100457.41
2019-05-16T16:38:47.636Z,100455.25
2019-05-16T16:43:53.920Z,100445.27
2019-05-16T16:48:59.987Z,100447.73
2019-05-16T16:54:07.637Z,100440.72
2019-05-16T16:59:13.773Z,100436.59
2019-05-16T17:04:20.050Z,100435.35
2019-05-16T17:09:27.012Z,100448.17
2019-05-16T17:14:33.429Z,100450.70
2019-05-16T17:19:39.802Z,100466.42
2019-05-16T17:24:47.282Z,100464.00
2019-05-16T17:29:56.777Z,100466.42
2019-05-16T17:35:02.431Z,100455.86
2019-05-16T17:40:10.623Z,100451.09
2019-05-16T17:45:18.236Z,100452.08
2019-05-16T17:50:26.328Z,100461.83
2019-05-16T17:55:32.372Z,100456.80
2019-05-16T18:00:38.554Z,100466.16
2019-05-16T18:05:47.235Z,100455.48
2019-05-16T18:10:52.524Z,100463.62
2019-05-16T18:15:58.514Z,100468.02
2019-05-16T18:21:06.676Z,100481.05
2019-05-16T18:26:12.276Z,100487.45
2019-05-16T18:31:18.661Z,100482.15
2019-05-16T18:36:26.473Z,100483.98
2019-05-16T18:41:32.345Z,100492.72
2019-05-16T18:46:38.448Z,100501.42
2019-05-16T18:51:46.358Z,100506.92
2019-05-16T18:56:52.199Z,100501.95
2019-05-16T19:01:58.218Z,100509.65
2019-05-16T19:07:04.371Z,100521.06
2019-05-16T19:12:10.322Z,100522.91
2019-05-16T19:17:22.162Z,100525.15
2019-05-16T19:22:26.329Z,100529.46
2019-05-16T19:27:31.019Z,100530.23
2019-05-16T19:32:39.502Z,100530.52
2019-05-16T19:37:46.957Z,100535.24
2019-05-16T19:42:52.809Z,100533.48
2019-05-16T19:47:58.846Z,100534.14
2019-05-16T19:53:07.327Z,100536.92
2019-05-16T19:58:12.772Z,100538.61
2019-05-16T20:03:18.815Z,100531.45
2019-05-16T20:08:26.972Z,100528.42
2019-05-16T20:13:32.921Z,100520.13
2019-05-16T20:18:39.303Z,100515.06
2019-05-16T20:23:47.298Z,100516.41
2019-05-16T20:28:52.894Z,100513.72
2019-05-16T20:33:58.855Z,100515.75
2019-05-16T20:39:09.042Z,100516.55
2019-05-16T20:44:17.218Z,100511.21
2019-05-16T20:49:22.602Z,100514.38
2019-05-16T20:54:28.473Z,100514.87
2019-05-16T20:59:34.749Z,100512.15
2019-05-16T21:04:40.823Z,100509.64
2019-05-16T21:09:46.794Z,100501.37
2019-05-16T21:14:52.805Z,100508.81
2019-05-16T21:19:58.735Z,100494.02
2019-05-16T21:25:05.114Z,100488.83
2019-05-16T21:30:11.700Z,100484.05
2019-05-16T21:35:19.309Z,100485.64
2019-05-16T21:40:26.544Z,100471.17
2019-05-16T21:45:32.893Z,100473.95
2019-05-16T21:50:38.861Z,100474.98
2019-05-16T21:55:47.042Z,100469.05
2019-05-16T22:00:56.705Z,100463.18
2019-05-16T22:06:04.451Z,100462.55
2019-05-16T22:11:11.966Z,100454.01
2019-05-16T22:16:18.136Z,100436.20
2019-05-16T22:21:24.028Z,100438.88
2019-05-16T22:26:29.975Z,100433.19
2019-05-16T22:31:36.662Z,100431.85
2019-05-16T22:36:42.635Z,100437.14
2019-05-16T22:41:48.602Z,100425.65
2019-05-16T22:46:54.578Z,100417.61
2019-05-16T22:52:00.446Z,100420.55
2019-05-16T22:57:06.783Z,100419.22
2019-05-16T23:02:13.028Z,100419.22
2019-05-16T23:07:19.177Z,100408.72
2019-05-16T23:12:26.628Z,100405.58
2019-05-16T23:17:32.757Z,100404.10
2019-05-16T23:22:38.954Z,100404.16
2019-05-16T23:27:47.215Z,100398.80
2019-05-16T23:32:52.514Z,100389.37
2019-05-16T23:37:58.436Z,100383.63
2019-05-16T23:43:04.359Z,100377.23
2019-05-16T23:48:11.385Z,100373.12
2019-05-16T23:53:17.728Z,100366.02
2019-05-16T23:58:24.929Z,100353.75
